sensor_id;sensor_type;location;lat;lon;timestamp;P1;durP1;ratioP1;P2;durP2;ratioP2
47349;SDS011;33088;51.982;5.872;2023-03-14T00:02:02;8.50;;;2.55;;
47349;SDS011;33088;51.982;5.872;2023-03-14T00:04:28;7.65;;;2.13;;
47349;SDS011;33088;51.982;5.872;2023-03-14T00:06:53;11.20;;;3.00;;
47349;SDS011;33088;51.982;5.872;2023-03-14T00:09:19;7.82;;;2.85;;
47349;SDS011;33088;51.982;5.872;2023-03-14T00:11:45;6.85;;;2.13;;
47349;SDS011;33088;51.982;5.872;2023-03-14T00:14:11;14.80;;;3.63;;
47349;SDS011;33088;51.982;5.872;2023-03-14T00:16:36;10.40;;;2.78;;
47349;SDS011;33088;51.982;5.872;2023-03-14T00:19:02;15.10;;;3.30;;
47349;SDS011;33088;51.982;5.872;2023-03-14T00:21:28;17.05;;;3.80;;
47349;SDS011;33088;51.982;5.872;2023-03-14T00:23:53;15.10;;;2.95;;
47349;SDS011;33088;51.982;5.872;2023-03-14T00:26:20;12.32;;;3.38;;
47349;SDS011;33088;51.982;5.872;2023-03-14T00:28:46;10.75;;;2.83;;
47349;SDS011;33088;51.982;5.872;2023-03-14T00:31:16;6.32;;;2.20;;
47349;SDS011;33088;51.982;5.872;2023-03-14T00:33:42;8.88;;;2.80;;
47349;SDS011;33088;51.982;5.872;2023-03-14T00:36:10;6.25;;;2.00;;
47349;SDS011;33088;51.982;5.872;2023-03-14T00:38:37;7.93;;;2.28;;
47349;SDS011;33088;51.982;5.872;2023-03-14T00:41:05;8.20;;;1.95;;
47349;SDS011;33088;51.982;5.872;2023-03-14T00:43:32;10.57;;;2.70;;
47349;SDS011;33088;51.982;5.872;2023-03-14T00:45:58;6.80;;;2.30;;
47349;SDS011;33088;51.982;5.872;2023-03-14T00:48:25;7.28;;;1.60;;
47349;SDS011;33088;51.982;5.872;2023-03-14T00:50:51;6.03;;;1.83;;
47349;SDS011;33088;51.982;5.872;2023-03-14T00:53:17;11.18;;;2.40;;
47349;SDS011;33088;51.982;5.872;2023-03-14T00:55:44;7.32;;;1.52;;
47349;SDS011;33088;51.982;5.872;2023-03-14T00:58:10;10.07;;;1.75;;
47349;SDS011;33088;51.982;5.872;2023-03-14T01:00:37;7.60;;;1.95;;
47349;SDS011;33088;51.982;5.872;2023-03-14T01:03:04;4.35;;;1.40;;
47349;SDS011;33088;51.982;5.872;2023-03-14T01:05:30;6.38;;;1.40;;
47349;SDS011;33088;51.982;5.872;2023-03-14T01:07:56;12.00;;;1.95;;
47349;SDS011;33088;51.982;5.872;2023-03-14T01:10:22;7.75;;;2.53;;
47349;SDS011;33088;51.982;5.872;2023-03-14T01:12:48;5.88;;;1.88;;
47349;SDS011;33088;51.982;5.872;2023-03-14T01:15:13;5.22;;;1.88;;
47349;SDS011;33088;51.982;5.872;2023-03-14T01:17:39;13.38;;;2.13;;
47349;SDS011;33088;51.982;5.872;2023-03-14T01:20:06;12.77;;;2.42;;
47349;SDS011;33088;51.982;5.872;2023-03-14T01:22:36;8.38;;;2.05;;
47349;SDS011;33088;51.982;5.872;2023-03-14T01:25:05;7.10;;;2.40;;
47349;SDS011;33088;51.982;5.872;2023-03-14T01:27:35;6.78;;;2.25;;
47349;SDS011;33088;51.982;5.872;2023-03-14T01:30:02;8.55;;;2.63;;
47349;SDS011;33088;51.982;5.872;2023-03-14T01:32:29;5.35;;;1.95;;
47349;SDS011;33088;51.982;5.872;2023-03-14T01:34:55;10.02;;;1.88;;
47349;SDS011;33088;51.982;5.872;2023-03-14T01:37:20;12.70;;;2.30;;
47349;SDS011;33088;51.982;5.872;2023-03-14T01:39:46;12.98;;;2.15;;
47349;SDS011;33088;51.982;5.872;2023-03-14T01:42:13;7.88;;;2.10;;
47349;SDS011;33088;51.982;5.872;2023-03-14T01:44:46;15.25;;;2.38;;
47349;SDS011;33088;51.982;5.872;2023-03-14T01:47:12;7.65;;;1.77;;
47349;SDS011;33088;51.982;5.872;2023-03-14T01:49:38;9.45;;;2.58;;
47349;SDS011;33088;51.982;5.872;2023-03-14T01:52:10;8.00;;;2.47;;
47349;SDS011;33088;51.982;5.872;2023-03-14T01:54:50;11.15;;;3.03;;
47349;SDS011;33088;51.982;5.872;2023-03-14T01:59:52;12.45;;;2.40;;
47349;SDS011;33088;51.982;5.872;2023-03-14T02:02:21;14.00;;;2.88;;
47349;SDS011;33088;51.982;5.872;2023-03-14T02:04:49;18.35;;;2.88;;
47349;SDS011;33088;51.982;5.872;2023-03-14T02:07:20;10.88;;;3.15;;
47349;SDS011;33088;51.982;5.872;2023-03-14T02:10:03;11.73;;;3.05;;
47349;SDS011;33088;51.982;5.872;2023-03-14T02:12:30;14.07;;;2.85;;
47349;SDS011;33088;51.982;5.872;2023-03-14T02:15:15;23.33;;;4.35;;
47349;SDS011;33088;51.982;5.872;2023-03-14T02:17:55;11.90;;;3.28;;
47349;SDS011;33088;51.982;5.872;2023-03-14T02:26:37;16.75;;;3.75;;
47349;SDS011;33088;51.982;5.872;2023-03-14T02:29:06;12.60;;;3.28;;
47349;SDS011;33088;51.982;5.872;2023-03-14T02:31:32;15.70;;;3.75;;
47349;SDS011;33088;51.982;5.872;2023-03-14T02:33:58;11.27;;;3.40;;
47349;SDS011;33088;51.982;5.872;2023-03-14T02:36:28;12.30;;;3.08;;
47349;SDS011;33088;51.982;5.872;2023-03-14T02:42:00;9.65;;;2.67;;
47349;SDS011;33088;51.982;5.872;2023-03-14T02:44:26;15.98;;;2.97;;
47349;SDS011;33088;51.982;5.872;2023-03-14T02:46:52;14.60;;;2.85;;
47349;SDS011;33088;51.982;5.872;2023-03-14T02:49:18;9.70;;;2.90;;
47349;SDS011;33088;51.982;5.872;2023-03-14T02:51:44;18.45;;;3.15;;
47349;SDS011;33088;51.982;5.872;2023-03-14T02:54:11;16.23;;;2.78;;
47349;SDS011;33088;51.982;5.872;2023-03-14T02:56:39;14.07;;;3.60;;
47349;SDS011;33088;51.982;5.872;2023-03-14T02:59:06;13.40;;;2.90;;
47349;SDS011;33088;51.982;5.872;2023-03-14T03:01:38;7.25;;;2.13;;
47349;SDS011;33088;51.982;5.872;2023-03-14T03:04:04;12.85;;;2.50;;
47349;SDS011;33088;51.982;5.872;2023-03-14T03:06:30;17.23;;;2.42;;
47349;SDS011;33088;51.982;5.872;2023-03-14T03:08:55;12.18;;;2.50;;
47349;SDS011;33088;51.982;5.872;2023-03-14T03:11:21;11.82;;;2.35;;
47349;SDS011;33088;51.982;5.872;2023-03-14T03:13:47;11.15;;;2.33;;
47349;SDS011;33088;51.982;5.872;2023-03-14T03:16:13;14.50;;;2.88;;
47349;SDS011;33088;51.982;5.872;2023-03-14T03:18:40;6.72;;;2.10;;
47349;SDS011;33088;51.982;5.872;2023-03-14T03:21:06;11.40;;;2.72;;
47349;SDS011;33088;51.982;5.872;2023-03-14T03:23:33;11.98;;;3.80;;
47349;SDS011;33088;51.982;5.872;2023-03-14T03:25:59;11.95;;;2.83;;
47349;SDS011;33088;51.982;5.872;2023-03-14T03:28:25;16.65;;;2.80;;
47349;SDS011;33088;51.982;5.872;2023-03-14T03:30:51;7.53;;;2.22;;
47349;SDS011;33088;51.982;5.872;2023-03-14T03:33:17;9.82;;;2.78;;
47349;SDS011;33088;51.982;5.872;2023-03-14T03:38:10;11.52;;;2.92;;
47349;SDS011;33088;51.982;5.872;2023-03-14T03:40:37;7.80;;;2.67;;
47349;SDS011;33088;51.982;5.872;2023-03-14T03:43:03;10.13;;;2.58;;
47349;SDS011;33088;51.982;5.872;2023-03-14T03:45:30;21.02;;;3.95;;
47349;SDS011;33088;51.982;5.872;2023-03-14T03:47:56;14.30;;;3.20;;
47349;SDS011;33088;51.982;5.872;2023-03-14T03:50:22;13.48;;;3.10;;
47349;SDS011;33088;51.982;5.872;2023-03-14T03:52:47;17.08;;;3.08;;
47349;SDS011;33088;51.982;5.872;2023-03-14T03:55:13;18.00;;;2.92;;
47349;SDS011;33088;51.982;5.872;2023-03-14T03:57:39;11.38;;;3.50;;
47349;SDS011;33088;51.982;5.872;2023-03-14T04:00:05;14.40;;;3.53;;
47349;SDS011;33088;51.982;5.872;2023-03-14T04:02:39;10.57;;;2.63;;
47349;SDS011;33088;51.982;5.872;2023-03-14T04:05:06;11.27;;;2.47;;
47349;SDS011;33088;51.982;5.872;2023-03-14T04:07:32;16.95;;;3.92;;
47349;SDS011;33088;51.982;5.872;2023-03-14T04:09:59;25.33;;;3.70;;
47349;SDS011;33088;51.982;5.872;2023-03-14T04:12:37;23.77;;;3.33;;
47349;SDS011;33088;51.982;5.872;2023-03-14T04:15:10;14.48;;;3.38;;
47349;SDS011;33088;51.982;5.872;2023-03-14T04:17:39;12.07;;;2.80;;
47349;SDS011;33088;51.982;5.872;2023-03-14T04:20:05;13.73;;;3.70;;
47349;SDS011;33088;51.982;5.872;2023-03-14T04:22:35;18.48;;;3.45;;
47349;SDS011;33088;51.982;5.872;2023-03-14T04:25:02;13.90;;;3.78;;
47349;SDS011;33088;51.982;5.872;2023-03-14T04:27:30;14.88;;;4.10;;
47349;SDS011;33088;51.982;5.872;2023-03-14T04:29:57;12.90;;;3.20;;
47349;SDS011;33088;51.982;5.872;2023-03-14T04:32:41;11.05;;;2.28;;
47349;SDS011;33088;51.982;5.872;2023-03-14T04:35:06;19.00;;;3.75;;
47349;SDS011;33088;51.982;5.872;2023-03-14T04:37:32;12.30;;;3.42;;
47349;SDS011;33088;51.982;5.872;2023-03-14T04:39:58;13.52;;;3.55;;
47349;SDS011;33088;51.982;5.872;2023-03-14T04:42:26;10.15;;;2.40;;
47349;SDS011;33088;51.982;5.872;2023-03-14T04:44:52;13.13;;;2.38;;
47349;SDS011;33088;51.982;5.872;2023-03-14T04:47:21;10.13;;;2.65;;
47349;SDS011;33088;51.982;5.872;2023-03-14T04:49:48;13.73;;;2.65;;
47349;SDS011;33088;51.982;5.872;2023-03-14T04:52:14;9.32;;;2.30;;
47349;SDS011;33088;51.982;5.872;2023-03-14T04:54:41;9.60;;;2.15;;
47349;SDS011;33088;51.982;5.872;2023-03-14T04:57:07;12.27;;;3.30;;
47349;SDS011;33088;51.982;5.872;2023-03-14T04:59:35;11.60;;;2.40;;
47349;SDS011;33088;51.982;5.872;2023-03-14T05:02:12;9.27;;;1.90;;
47349;SDS011;33088;51.982;5.872;2023-03-14T05:05:04;10.15;;;1.67;;
47349;SDS011;33088;51.982;5.872;2023-03-14T05:07:44;9.95;;;2.13;;
47349;SDS011;33088;51.982;5.872;2023-03-14T05:10:37;9.63;;;2.60;;
47349;SDS011;33088;51.982;5.872;2023-03-14T05:13:11;11.60;;;1.90;;
47349;SDS011;33088;51.982;5.872;2023-03-14T05:16:03;12.77;;;3.58;;
47349;SDS011;33088;51.982;5.872;2023-03-14T05:18:54;13.02;;;1.92;;
47349;SDS011;33088;51.982;5.872;2023-03-14T05:21:42;8.75;;;1.75;;
47349;SDS011;33088;51.982;5.872;2023-03-14T05:24:08;9.70;;;2.25;;
47349;SDS011;33088;51.982;5.872;2023-03-14T05:26:56;11.45;;;1.83;;
47349;SDS011;33088;51.982;5.872;2023-03-14T05:29:40;5.30;;;2.00;;
47349;SDS011;33088;51.982;5.872;2023-03-14T05:32:44;11.93;;;1.73;;
47349;SDS011;33088;51.982;5.872;2023-03-14T05:35:36;6.43;;;1.63;;
47349;SDS011;33088;51.982;5.872;2023-03-14T05:38:24;5.28;;;1.10;;
47349;SDS011;33088;51.982;5.872;2023-03-14T05:41:07;6.18;;;1.60;;
47349;SDS011;33088;51.982;5.872;2023-03-14T05:43:53;5.20;;;1.40;;
47349;SDS011;33088;51.982;5.872;2023-03-14T05:46:33;4.13;;;1.23;;
47349;SDS011;33088;51.982;5.872;2023-03-14T05:49:14;5.57;;;1.70;;
47349;SDS011;33088;51.982;5.872;2023-03-14T05:51:58;6.32;;;1.63;;
47349;SDS011;33088;51.982;5.872;2023-03-14T05:54:47;7.97;;;2.10;;
47349;SDS011;33088;51.982;5.872;2023-03-14T05:57:37;7.63;;;1.75;;
47349;SDS011;33088;51.982;5.872;2023-03-14T06:00:23;12.35;;;2.55;;
47349;SDS011;33088;51.982;5.872;2023-03-14T06:03:03;8.73;;;1.92;;
47349;SDS011;33088;51.982;5.872;2023-03-14T06:05:33;7.00;;;2.00;;
47349;SDS011;33088;51.982;5.872;2023-03-14T06:08:00;6.85;;;1.50;;
47349;SDS011;33088;51.982;5.872;2023-03-14T06:10:28;9.15;;;2.97;;
47349;SDS011;33088;51.982;5.872;2023-03-14T06:12:54;4.75;;;2.65;;
47349;SDS011;33088;51.982;5.872;2023-03-14T06:15:20;9.95;;;2.58;;
47349;SDS011;33088;51.982;5.872;2023-03-14T06:17:48;6.60;;;2.80;;
47349;SDS011;33088;51.982;5.872;2023-03-14T06:20:15;8.30;;;2.65;;
47349;SDS011;33088;51.982;5.872;2023-03-14T06:22:41;7.93;;;2.60;;
47349;SDS011;33088;51.982;5.872;2023-03-14T06:25:08;5.18;;;2.40;;
47349;SDS011;33088;51.982;5.872;2023-03-14T06:27:34;8.88;;;2.47;;
47349;SDS011;33088;51.982;5.872;2023-03-14T06:29:59;7.47;;;2.05;;
47349;SDS011;33088;51.982;5.872;2023-03-14T06:32:26;7.25;;;3.05;;
47349;SDS011;33088;51.982;5.872;2023-03-14T06:34:56;5.80;;;2.78;;
47349;SDS011;33088;51.982;5.872;2023-03-14T06:37:29;7.63;;;2.95;;
47349;SDS011;33088;51.982;5.872;2023-03-14T06:39:55;8.50;;;3.47;;
47349;SDS011;33088;51.982;5.872;2023-03-14T06:42:41;5.82;;;2.75;;
47349;SDS011;33088;51.982;5.872;2023-03-14T06:45:08;6.10;;;2.83;;
47349;SDS011;33088;51.982;5.872;2023-03-14T06:47:35;8.70;;;3.42;;
47349;SDS011;33088;51.982;5.872;2023-03-14T06:50:00;8.27;;;3.15;;
47349;SDS011;33088;51.982;5.872;2023-03-14T06:52:26;6.53;;;3.15;;
47349;SDS011;33088;51.982;5.872;2023-03-14T06:54:52;7.28;;;3.80;;
47349;SDS011;33088;51.982;5.872;2023-03-14T06:57:20;8.25;;;4.05;;
47349;SDS011;33088;51.982;5.872;2023-03-14T06:59:46;7.03;;;3.80;;
47349;SDS011;33088;51.982;5.872;2023-03-14T07:02:12;6.55;;;3.90;;
47349;SDS011;33088;51.982;5.872;2023-03-14T07:04:39;7.68;;;4.68;;
47349;SDS011;33088;51.982;5.872;2023-03-14T07:07:05;7.70;;;4.25;;
47349;SDS011;33088;51.982;5.872;2023-03-14T07:09:33;7.53;;;3.58;;
47349;SDS011;33088;51.982;5.872;2023-03-14T07:12:00;6.78;;;4.00;;
47349;SDS011;33088;51.982;5.872;2023-03-14T07:14:27;10.75;;;4.78;;
47349;SDS011;33088;51.982;5.872;2023-03-14T07:16:53;12.95;;;4.55;;
47349;SDS011;33088;51.982;5.872;2023-03-14T07:19:18;7.60;;;4.47;;
47349;SDS011;33088;51.982;5.872;2023-03-14T07:21:44;8.63;;;5.07;;
47349;SDS011;33088;51.982;5.872;2023-03-14T07:24:11;8.15;;;4.28;;
47349;SDS011;33088;51.982;5.872;2023-03-14T07:26:38;10.60;;;4.88;;
47349;SDS011;33088;51.982;5.872;2023-03-14T07:29:04;7.10;;;3.83;;
47349;SDS011;33088;51.982;5.872;2023-03-14T07:31:30;5.95;;;2.85;;
47349;SDS011;33088;51.982;5.872;2023-03-14T07:33:57;4.78;;;3.58;;
47349;SDS011;33088;51.982;5.872;2023-03-14T07:36:27;4.55;;;3.53;;
47349;SDS011;33088;51.982;5.872;2023-03-14T07:38:53;4.95;;;3.13;;
47349;SDS011;33088;51.982;5.872;2023-03-14T07:41:45;4.03;;;1.98;;
47349;SDS011;33088;51.982;5.872;2023-03-14T07:44:29;7.88;;;2.28;;
47349;SDS011;33088;51.982;5.872;2023-03-14T07:46:54;3.45;;;1.77;;
47349;SDS011;33088;51.982;5.872;2023-03-14T07:49:20;6.90;;;1.98;;
47349;SDS011;33088;51.982;5.872;2023-03-14T07:51:49;7.32;;;2.20;;
47349;SDS011;33088;51.982;5.872;2023-03-14T07:54:15;5.15;;;1.65;;
47349;SDS011;33088;51.982;5.872;2023-03-14T07:56:40;2.28;;;1.67;;
47349;SDS011;33088;51.982;5.872;2023-03-14T07:59:06;6.72;;;1.52;;
47349;SDS011;33088;51.982;5.872;2023-03-14T08:01:32;4.03;;;1.17;;
47349;SDS011;33088;51.982;5.872;2023-03-14T08:03:58;2.25;;;1.20;;
47349;SDS011;33088;51.982;5.872;2023-03-14T08:06:24;2.33;;;1.13;;
47349;SDS011;33088;51.982;5.872;2023-03-14T08:08:50;4.05;;;2.08;;
47349;SDS011;33088;51.982;5.872;2023-03-14T08:11:15;1.83;;;1.38;;
47349;SDS011;33088;51.982;5.872;2023-03-14T08:13:41;3.13;;;1.20;;
47349;SDS011;33088;51.982;5.872;2023-03-14T08:16:07;3.70;;;1.65;;
47349;SDS011;33088;51.982;5.872;2023-03-14T08:18:33;6.35;;;1.30;;
47349;SDS011;33088;51.982;5.872;2023-03-14T08:20:59;3.72;;;2.20;;
47349;SDS011;33088;51.982;5.872;2023-03-14T08:23:24;3.45;;;1.23;;
47349;SDS011;33088;51.982;5.872;2023-03-14T08:25:50;2.00;;;1.30;;
47349;SDS011;33088;51.982;5.872;2023-03-14T08:28:17;1.52;;;1.00;;
47349;SDS011;33088;51.982;5.872;2023-03-14T08:30:43;4.50;;;1.30;;
47349;SDS011;33088;51.982;5.872;2023-03-14T08:33:09;4.68;;;1.23;;
47349;SDS011;33088;51.982;5.872;2023-03-14T08:35:35;1.88;;;1.10;;
47349;SDS011;33088;51.982;5.872;2023-03-14T08:38:02;3.25;;;1.50;;
47349;SDS011;33088;51.982;5.872;2023-03-14T08:40:28;4.65;;;1.02;;
47349;SDS011;33088;51.982;5.872;2023-03-14T08:42:53;5.45;;;1.70;;
47349;SDS011;33088;51.982;5.872;2023-03-14T08:45:19;5.63;;;0.93;;
47349;SDS011;33088;51.982;5.872;2023-03-14T08:47:45;4.63;;;1.10;;
47349;SDS011;33088;51.982;5.872;2023-03-14T08:50:11;6.75;;;1.48;;
47349;SDS011;33088;51.982;5.872;2023-03-14T08:52:38;6.97;;;1.52;;
47349;SDS011;33088;51.982;5.872;2023-03-14T08:55:05;5.32;;;1.48;;
47349;SDS011;33088;51.982;5.872;2023-03-14T08:57:32;9.38;;;1.95;;
47349;SDS011;33088;51.982;5.872;2023-03-14T08:59:58;4.03;;;1.38;;
47349;SDS011;33088;51.982;5.872;2023-03-14T09:02:23;9.27;;;2.03;;
47349;SDS011;33088;51.982;5.872;2023-03-14T09:04:50;3.70;;;1.20;;
47349;SDS011;33088;51.982;5.872;2023-03-14T09:07:16;4.43;;;1.15;;
47349;SDS011;33088;51.982;5.872;2023-03-14T09:09:44;5.18;;;1.10;;
47349;SDS011;33088;51.982;5.872;2023-03-14T09:12:09;6.15;;;1.08;;
47349;SDS011;33088;51.982;5.872;2023-03-14T09:14:35;2.15;;;0.70;;
47349;SDS011;33088;51.982;5.872;2023-03-14T09:17:02;3.95;;;1.05;;
47349;SDS011;33088;51.982;5.872;2023-03-14T09:19:28;8.55;;;1.35;;
47349;SDS011;33088;51.982;5.872;2023-03-14T09:21:54;3.90;;;1.00;;
47349;SDS011;33088;51.982;5.872;2023-03-14T09:24:20;2.80;;;0.75;;
47349;SDS011;33088;51.982;5.872;2023-03-14T09:26:45;4.70;;;0.70;;
47349;SDS011;33088;51.982;5.872;2023-03-14T09:29:11;12.43;;;1.50;;
47349;SDS011;33088;51.982;5.872;2023-03-14T09:31:37;2.65;;;0.55;;
47349;SDS011;33088;51.982;5.872;2023-03-14T09:34:02;3.75;;;0.50;;
47349;SDS011;33088;51.982;5.872;2023-03-14T09:36:28;12.75;;;2.20;;
47349;SDS011;33088;51.982;5.872;2023-03-14T09:38:54;2.90;;;0.90;;
47349;SDS011;33088;51.982;5.872;2023-03-14T09:41:27;5.47;;;0.57;;
47349;SDS011;33088;51.982;5.872;2023-03-14T09:44:10;2.40;;;0.60;;
47349;SDS011;33088;51.982;5.872;2023-03-14T09:46:37;3.70;;;0.82;;
47349;SDS011;33088;51.982;5.872;2023-03-14T09:49:08;2.30;;;0.90;;
47349;SDS011;33088;51.982;5.872;2023-03-14T09:51:37;6.60;;;1.10;;
47349;SDS011;33088;51.982;5.872;2023-03-14T09:54:03;4.97;;;0.88;;
47349;SDS011;33088;51.982;5.872;2023-03-14T09:56:31;3.50;;;0.80;;
47349;SDS011;33088;51.982;5.872;2023-03-14T09:58:59;2.92;;;0.75;;
47349;SDS011;33088;51.982;5.872;2023-03-14T10:01:29;7.57;;;2.45;;
47349;SDS011;33088;51.982;5.872;2023-03-14T10:03:57;4.05;;;1.35;;
47349;SDS011;33088;51.982;5.872;2023-03-14T10:06:26;5.88;;;1.00;;
47349;SDS011;33088;51.982;5.872;2023-03-14T10:08:54;6.90;;;0.93;;
47349;SDS011;33088;51.982;5.872;2023-03-14T10:11:21;9.02;;;1.42;;
47349;SDS011;33088;51.982;5.872;2023-03-14T10:14:01;6.63;;;1.00;;
47349;SDS011;33088;51.982;5.872;2023-03-14T10:16:29;6.40;;;1.52;;
47349;SDS011;33088;51.982;5.872;2023-03-14T10:19:02;9.93;;;1.02;;
47349;SDS011;33088;51.982;5.872;2023-03-14T10:21:37;14.18;;;1.58;;
47349;SDS011;33088;51.982;5.872;2023-03-14T10:24:20;9.82;;;2.15;;
47349;SDS011;33088;51.982;5.872;2023-03-14T10:27:17;8.55;;;1.83;;
47349;SDS011;33088;51.982;5.872;2023-03-14T10:29:53;11.98;;;2.80;;
47349;SDS011;33088;51.982;5.872;2023-03-14T10:32:21;10.25;;;1.70;;
47349;SDS011;33088;51.982;5.872;2023-03-14T10:35:05;16.15;;;2.78;;
47349;SDS011;33088;51.982;5.872;2023-03-14T10:37:48;20.40;;;3.28;;
47349;SDS011;33088;51.982;5.872;2023-03-14T10:40:14;25.90;;;3.80;;
47349;SDS011;33088;51.982;5.872;2023-03-14T10:42:41;9.90;;;2.17;;
47349;SDS011;33088;51.982;5.872;2023-03-14T10:45:31;13.55;;;2.70;;
47349;SDS011;33088;51.982;5.872;2023-03-14T10:48:19;17.55;;;2.28;;
47349;SDS011;33088;51.982;5.872;2023-03-14T10:50:53;8.82;;;2.28;;
47349;SDS011;33088;51.982;5.872;2023-03-14T10:53:19;17.73;;;2.58;;
47349;SDS011;33088;51.982;5.872;2023-03-14T10:55:45;15.45;;;2.33;;
47349;SDS011;33088;51.982;5.872;2023-03-14T10:58:18;19.23;;;3.15;;
47349;SDS011;33088;51.982;5.872;2023-03-14T11:00:47;19.13;;;3.13;;
47349;SDS011;33088;51.982;5.872;2023-03-14T11:03:22;20.80;;;3.40;;
47349;SDS011;33088;51.982;5.872;2023-03-14T11:06:27;18.17;;;2.88;;
47349;SDS011;33088;51.982;5.872;2023-03-14T11:09:03;16.15;;;3.70;;
47349;SDS011;33088;51.982;5.872;2023-03-14T11:11:51;26.70;;;3.15;;
47349;SDS011;33088;51.982;5.872;2023-03-14T11:16:53;17.90;;;2.60;;
47349;SDS011;33088;51.982;5.872;2023-03-14T11:19:32;17.23;;;2.85;;
47349;SDS011;33088;51.982;5.872;2023-03-14T11:22:12;15.60;;;2.92;;
47349;SDS011;33088;51.982;5.872;2023-03-14T11:28:09;23.00;;;3.40;;
47349;SDS011;33088;51.982;5.872;2023-03-14T11:30:51;24.48;;;4.25;;
47349;SDS011;33088;51.982;5.872;2023-03-14T11:38:38;20.98;;;3.28;;
47349;SDS011;33088;51.982;5.872;2023-03-14T11:41:15;20.85;;;2.40;;
47349;SDS011;33088;51.982;5.872;2023-03-14T11:43:54;22.58;;;4.47;;
47349;SDS011;33088;51.982;5.872;2023-03-14T11:46:32;25.30;;;3.63;;
47349;SDS011;33088;51.982;5.872;2023-03-14T11:51:35;20.63;;;3.03;;
47349;SDS011;33088;51.982;5.872;2023-03-14T12:02:20;14.05;;;3.17;;
47349;SDS011;33088;51.982;5.872;2023-03-14T12:10:23;11.10;;;3.00;;
47349;SDS011;33088;51.982;5.872;2023-03-14T12:12:49;13.57;;;2.75;;
47349;SDS011;33088;51.982;5.872;2023-03-14T12:15:18;13.82;;;2.53;;
47349;SDS011;33088;51.982;5.872;2023-03-14T12:17:45;15.85;;;3.00;;
47349;SDS011;33088;51.982;5.872;2023-03-14T12:20:18;11.80;;;3.05;;
47349;SDS011;33088;51.982;5.872;2023-03-14T12:22:50;11.25;;;1.98;;
47349;SDS011;33088;51.982;5.872;2023-03-14T12:30:56;13.77;;;2.25;;
47349;SDS011;33088;51.982;5.872;2023-03-14T12:43:42;8.55;;;1.67;;
47349;SDS011;33088;51.982;5.872;2023-03-14T12:48:46;9.63;;;1.70;;
47349;SDS011;33088;51.982;5.872;2023-03-14T12:51:15;10.43;;;2.13;;
47349;SDS011;33088;51.982;5.872;2023-03-14T12:53:46;8.85;;;2.45;;
47349;SDS011;33088;51.982;5.872;2023-03-14T12:59:29;15.05;;;1.95;;
47349;SDS011;33088;51.982;5.872;2023-03-14T13:04:33;10.88;;;2.42;;
47349;SDS011;33088;51.982;5.872;2023-03-14T13:10:17;13.70;;;2.50;;
47349;SDS011;33088;51.982;5.872;2023-03-14T13:12:48;9.50;;;2.00;;
47349;SDS011;33088;51.982;5.872;2023-03-14T13:17:51;12.32;;;2.17;;
47349;SDS011;33088;51.982;5.872;2023-03-14T13:20:24;10.68;;;1.73;;
47349;SDS011;33088;51.982;5.872;2023-03-14T13:22:52;10.23;;;2.25;;
47349;SDS011;33088;51.982;5.872;2023-03-14T13:25:17;11.57;;;2.20;;
47349;SDS011;33088;51.982;5.872;2023-03-14T13:27:46;9.32;;;1.90;;
47349;SDS011;33088;51.982;5.872;2023-03-14T13:30:16;13.05;;;2.70;;
47349;SDS011;33088;51.982;5.872;2023-03-14T13:32:47;11.52;;;1.98;;
47349;SDS011;33088;51.982;5.872;2023-03-14T13:35:15;9.40;;;2.17;;
47349;SDS011;33088;51.982;5.872;2023-03-14T13:37:45;9.07;;;1.88;;
47349;SDS011;33088;51.982;5.872;2023-03-14T13:40:19;8.10;;;1.30;;
47349;SDS011;33088;51.982;5.872;2023-03-14T13:42:46;8.43;;;1.95;;
47349;SDS011;33088;51.982;5.872;2023-03-14T13:45:15;8.15;;;1.25;;
47349;SDS011;33088;51.982;5.872;2023-03-14T13:47:40;8.88;;;2.40;;
47349;SDS011;33088;51.982;5.872;2023-03-14T13:50:15;5.63;;;1.25;;
47349;SDS011;33088;51.982;5.872;2023-03-14T13:52:43;13.50;;;1.38;;
47349;SDS011;33088;51.982;5.872;2023-03-14T13:55:16;8.30;;;1.60;;
47349;SDS011;33088;51.982;5.872;2023-03-14T13:57:44;8.45;;;1.75;;
47349;SDS011;33088;51.982;5.872;2023-03-14T14:00:20;5.90;;;1.52;;
47349;SDS011;33088;51.982;5.872;2023-03-14T14:02:51;9.75;;;2.00;;
47349;SDS011;33088;51.982;5.872;2023-03-14T14:05:22;9.15;;;1.15;;
47349;SDS011;33088;51.982;5.872;2023-03-14T14:07:52;4.63;;;1.33;;
47349;SDS011;33088;51.982;5.872;2023-03-14T14:10:18;10.85;;;2.35;;
47349;SDS011;33088;51.982;5.872;2023-03-14T14:12:46;8.57;;;1.40;;
47349;SDS011;33088;51.982;5.872;2023-03-14T14:15:21;11.00;;;1.80;;
47349;SDS011;33088;51.982;5.872;2023-03-14T14:17:51;5.57;;;1.38;;
47349;SDS011;33088;51.982;5.872;2023-03-14T14:20:30;9.30;;;1.75;;
47349;SDS011;33088;51.982;5.872;2023-03-14T14:25:31;6.65;;;1.27;;
47349;SDS011;33088;51.982;5.872;2023-03-14T14:27:57;11.35;;;1.80;;
47349;SDS011;33088;51.982;5.872;2023-03-14T14:30:28;5.55;;;1.77;;
47349;SDS011;33088;51.982;5.872;2023-03-14T14:33:10;6.60;;;1.60;;
47349;SDS011;33088;51.982;5.872;2023-03-14T14:35:42;8.65;;;1.60;;
47349;SDS011;33088;51.982;5.872;2023-03-14T14:38:18;3.75;;;1.30;;
47349;SDS011;33088;51.982;5.872;2023-03-14T14:40:46;9.65;;;1.63;;
47349;SDS011;33088;51.982;5.872;2023-03-14T14:43:21;11.52;;;1.55;;
47349;SDS011;33088;51.982;5.872;2023-03-14T14:45:50;10.02;;;1.30;;
47349;SDS011;33088;51.982;5.872;2023-03-14T14:48:18;10.00;;;1.88;;
47349;SDS011;33088;51.982;5.872;2023-03-14T14:56:04;11.00;;;1.83;;
47349;SDS011;33088;51.982;5.872;2023-03-14T14:58:40;7.63;;;1.38;;
47349;SDS011;33088;51.982;5.872;2023-03-14T15:01:10;5.80;;;2.13;;
47349;SDS011;33088;51.982;5.872;2023-03-14T15:03:52;9.25;;;1.40;;
47349;SDS011;33088;51.982;5.872;2023-03-14T15:06:18;5.65;;;1.20;;
47349;SDS011;33088;51.982;5.872;2023-03-14T15:08:45;10.52;;;1.90;;
47349;SDS011;33088;51.982;5.872;2023-03-14T15:11:17;6.63;;;1.35;;
47349;SDS011;33088;51.982;5.872;2023-03-14T15:13:44;4.70;;;1.08;;
47349;SDS011;33088;51.982;5.872;2023-03-14T15:16:14;4.07;;;1.42;;
47349;SDS011;33088;51.982;5.872;2023-03-14T15:18:42;3.78;;;1.35;;
47349;SDS011;33088;51.982;5.872;2023-03-14T15:21:10;6.15;;;1.25;;
47349;SDS011;33088;51.982;5.872;2023-03-14T15:23:36;8.20;;;1.60;;
47349;SDS011;33088;51.982;5.872;2023-03-14T15:26:02;8.55;;;1.60;;
47349;SDS011;33088;51.982;5.872;2023-03-14T15:28:30;8.50;;;1.70;;
47349;SDS011;33088;51.982;5.872;2023-03-14T15:30:56;8.27;;;1.38;;
47349;SDS011;33088;51.982;5.872;2023-03-14T15:33:23;5.55;;;1.33;;
47349;SDS011;33088;51.982;5.872;2023-03-14T15:35:53;14.40;;;1.88;;
47349;SDS011;33088;51.982;5.872;2023-03-14T15:38:19;11.40;;;1.80;;
47349;SDS011;33088;51.982;5.872;2023-03-14T15:40:48;6.57;;;1.27;;
47349;SDS011;33088;51.982;5.872;2023-03-14T15:43:14;15.45;;;2.67;;
47349;SDS011;33088;51.982;5.872;2023-03-14T15:45:41;14.68;;;2.00;;
47349;SDS011;33088;51.982;5.872;2023-03-14T15:48:09;13.40;;;1.83;;
47349;SDS011;33088;51.982;5.872;2023-03-14T15:50:40;14.52;;;2.13;;
47349;SDS011;33088;51.982;5.872;2023-03-14T15:53:05;11.60;;;2.13;;
47349;SDS011;33088;51.982;5.872;2023-03-14T15:55:31;6.70;;;1.33;;
47349;SDS011;33088;51.982;5.872;2023-03-14T15:57:57;11.98;;;2.50;;
47349;SDS011;33088;51.982;5.872;2023-03-14T16:00:24;7.57;;;1.80;;
47349;SDS011;33088;51.982;5.872;2023-03-14T16:02:50;7.30;;;1.52;;
47349;SDS011;33088;51.982;5.872;2023-03-14T16:05:16;12.88;;;2.00;;
47349;SDS011;33088;51.982;5.872;2023-03-14T16:07:44;8.77;;;1.42;;
47349;SDS011;33088;51.982;5.872;2023-03-14T16:10:10;18.00;;;3.53;;
47349;SDS011;33088;51.982;5.872;2023-03-14T16:12:36;15.25;;;2.28;;
47349;SDS011;33088;51.982;5.872;2023-03-14T16:15:02;9.55;;;1.52;;
47349;SDS011;33088;51.982;5.872;2023-03-14T16:17:31;13.77;;;1.45;;
47349;SDS011;33088;51.982;5.872;2023-03-14T16:19:57;11.30;;;1.65;;